Rosamond, CA (93560)

7:59 AM PDT on September 02, 2015 (GMT -0700)
KCAROSAM1 | | Change Station
CLOSE
Current Station
Personal Weather Station
Location: ROSAMOND-1, CA
Elevation: 2336 ft
Nearby Weather Stations

Elev 2336 ft 34.86 °N, 118.17 °W | Updated 2 seconds ago

Partly Cloudy
Partly Cloudy
69.5 °F
Feels Like 69.5 °F
N
1.6
Wind Variable Wind from West
Gusts 3.5 mph

Today
High -- | Low -- °F
--% Chance of Precip.
Yesterday
High -- | Low -- °F
Precip. -- in
6:26 AM 7:18 PM
Waning Gibbous, 79% visible
Pressure 29.94 in
Visibility 10.0 miles
Clouds Clear
Dew Point 31 °F
Humidity 24%
Rainfall 0.00 in
Snow Depth Not available.
UV 1 out of 12
Pollen 8.60 out of 12
Air Quality Not available.
Flu Activity Not available.
METAR KWJF 021456Z 26012KT 10SM CLR 19/08 A2999 RMK AO2 SLP139 T01940083 51010
Pressure 29.94 in
Visibility 10.0 miles
Clouds Clear
Dew Point 31 °F
Humidity 24%
Rainfall 0.00 in
Snow Depth Not available.
UV 1 out of 12
Pollen 8.60 out of 12
Air Quality Not available.
Flu Activity Not available.
METAR KWJF 021456Z 26012KT 10SM CLR 19/08 A2999 RMK AO2 SLP139 T01940083 51010

10-Day Weather Forecast

×

Almanac

Astronomy

Sep. 02, 2015 Rise Set
Actual Time
Civil Twilight
Nautical Twilight
Astronomical Twilight
Moon
Length of Visible Light
Length of Day
Tomorrow will be .
, % of the Moon is Illuminated

Today's Extremes

State Highs State Lows

Community

WunderPhotos

Upload Photos

1,851,763 photos uploaded!

WunderBlogs® & News

Nearby

Air Quality

  Air Quality AQ Index Pollutant
Not available.

Snow Depth

Station Depth Elevation

Earthquake Activity

City Distance Mag. Time & Date
Minimum magnitude displayed is 2.5.

Coastal Water Temperatures

Place Temperature

Stations

Nearby Weather Stations

Station Location Temp. Windchill Dew Point Humidity Wind Precip. Elev Updated Type